Time;durP1;ratioP1;P1;durP2;ratioP2;P2;SDS_P1;SDS_P2;PMS_P1;PMS_P2;Temp;Humidity;BMP_temperature;BMP_pressure;BME280_temperature;BME280_humidity;BME280_pressure;Samples;Min_cycle;Max_cycle;Signal;HPM_P1;HPM_P2
2022/09/15 00:03:14;;;;;;;6.72;3.70;;;;;;;16.75;84.48;100319.22;10481195;28;20460;-71
2022/09/15 00:08:15;;;;;;;8.00;3.65;;;;;;;16.29;85.13;100264.63;10483009;28;20048;-72
2022/09/15 00:13:16;;;;;;;6.82;3.10;;;;;;;16.39;86.05;100315.13;10482732;28;20044;-72
2022/09/15 00:18:17;;;;;;;9.25;3.13;;;;;;;15.85;86.34;100271.41;10483223;28;20040;-71
2022/09/15 00:23:18;;;;;;;8.40;3.78;;;;;;;15.83;87.06;100283.38;10482002;28;20543;-72
2022/09/15 00:28:21;;;;;;;7.10;3.20;;;;;;;16.09;88.16;100350.34;10482204;28;20044;-71
2022/09/15 00:33:22;;;;;;;4.30;3.08;;;;;;;16.05;88.74;100345.63;10481562;28;20495;-72
2022/09/15 00:38:23;;;;;;;5.65;3.60;;;;;;;15.98;89.16;100338.41;10482647;28;20119;-72
2022/09/15 00:43:55;;;;;;;6.57;3.58;;;;;;;15.57;92.55;100268.03;10482010;28;20443;-71
2022/09/15 00:49:07;;;;;;;7.10;3.67;;;;;;;16.08;89.54;100361.28;10481889;28;20041;-73
2022/09/15 00:54:15;;;;;;;8.77;4.00;;;;;;;15.45;90.18;100251.72;10482422;28;20177;-72
2022/09/15 00:59:25;;;;;;;10.80;3.45;;;;;;;16.22;91.93;100367.50;10481620;28;20053;-72
2022/09/15 01:04:26;;;;;;;6.07;4.47;;;;;;;16.21;89.67;100366.66;10453508;28;20044;-74
2022/09/15 01:09:41;;;;;;;16.13;4.90;;;;;;;16.24;91.30;100358.22;10450702;28;20074;-71
2022/09/15 01:14:42;;;;;;;6.97;5.03;;;;;;;16.03;90.23;100345.81;10453723;28;20085;-72
2022/09/15 01:20:22;;;;;;;13.98;5.18;;;;;;;15.85;93.90;100342.91;10453198;28;20157;-72
2022/09/15 01:25:34;;;;;;;10.82;5.07;;;;;;;15.69;91.67;100357.50;10452103;28;20037;-72
2022/09/15 01:30:48;;;;;;;7.65;4.80;;;;;;;15.04;94.57;100271.34;10451286;28;20044;-72
2022/09/15 01:35:49;;;;;;;7.03;3.90;;;;;;;15.49;93.12;100352.84;10452487;28;20550;-72
2022/09/15 01:40:58;;;;;;;6.78;4.32;;;;;;;15.48;92.82;100345.84;10452255;28;20120;-72
2022/09/15 01:46:00;;;;;;;6.38;4.35;;;;;;;15.48;92.88;100337.00;10452307;28;20041;-72
2022/09/15 01:51:04;;;;;;;27.92;4.93;;;;;;;15.67;93.60;100359.50;10452194;28;20486;-72
2022/09/15 01:56:08;;;;;;;37.27;6.77;;;;;;;14.86;94.75;100234.44;10452952;28;20090;-72
2022/09/15 02:01:23;;;;;;;8.13;4.43;;;;;;;15.67;95.96;100370.22;10451879;28;20284;-71
2022/09/15 02:06:50;;;;;;;8.27;4.13;;;;;;;15.69;98.29;100363.66;10450968;28;20109;-71
2022/09/15 02:12:07;;;;;;;7.10;4.22;;;;;;;15.55;95.64;100356.56;10449956;28;20105;-72
2022/09/15 02:17:14;;;;;;;8.82;4.10;;;;;;;15.61;94.89;100350.41;10451671;28;20110;-72
2022/09/15 02:22:28;;;;;;;19.05;5.72;;;;;;;15.80;96.07;100381.03;10449096;28;20037;-72
2022/09/15 02:27:36;;;;;;;9.68;4.38;;;;;;;15.61;95.18;100366.47;10450200;28;20404;-72
2022/09/15 02:32:45;;;;;;;12.73;4.57;;;;;;;15.66;96.09;100388.13;10448784;28;20037;-71
2022/09/15 02:37:47;;;;;;;8.25;4.65;;;;;;;15.26;95.00;100309.53;10450521;28;20553;-71
2022/09/15 02:42:57;;;;;;;44.08;4.50;;;;;;;15.77;94.38;100369.88;10449473;28;20045;-72
2022/09/15 02:47:58;;;;;;;20.55;5.47;;;;;;;15.75;93.82;100364.72;10450084;28;20037;-72
2022/09/15 02:52:59;;;;;;;26.38;5.38;;;;;;;15.85;94.10;100388.44;10449253;28;20047;-72
2022/09/15 02:58:00;;;;;;;10.57;4.60;;;;;;;15.47;94.55;100338.03;10426869;28;20034;-73
2022/09/15 03:03:00;;;;;;;8.10;4.15;;;;;;;15.69;94.81;100377.06;10392244;28;20063;-70
2022/09/15 03:08:01;;;;;;;13.25;4.63;;;;;;;15.38;94.92;100318.63;10407587;28;20572;-70
2022/09/15 03:13:02;;;;;;;10.57;4.70;;;;;;;15.94;95.06;100404.16;10408371;28;20045;-70
2022/09/15 03:18:03;;;;;;;13.32;4.43;;;;;;;15.75;94.77;100367.41;10408577;28;20549;-70
2022/09/15 03:23:04;;;;;;;20.10;5.03;;;;;;;15.93;94.68;100396.31;10407085;28;20073;-70
2022/09/15 03:28:05;;;;;;;36.10;5.95;;;;;;;15.33;94.80;100296.16;10407642;28;20069;-70
2022/09/15 03:33:05;;;;;;;9.77;4.50;;;;;;;15.83;95.15;100366.41;10406711;28;20038;-71
2022/09/15 03:38:07;;;;;;;17.65;4.82;;;;;;;16.10;95.34;100411.00;10407160;28;20041;-70
2022/09/15 03:43:11;;;;;;;7.90;4.75;;;;;;;16.15;94.51;100411.22;10406866;28;20048;-71
2022/09/15 03:48:12;;;;;;;9.70;5.57;;;;;;;15.95;93.77;100357.56;10298050;28;20048;-71
2022/09/15 03:53:12;;;;;;;11.60;5.50;;;;;;;16.11;93.16;100369.75;10245849;28;20501;-70
2022/09/15 03:58:15;;;;;;;12.57;5.53;;;;;;;16.56;92.32;100420.94;10262188;28;20146;-71
2022/09/15 04:03:15;;;;;;;8.48;5.50;;;;;;;16.74;91.28;100427.56;10247937;28;20051;-69
2022/09/15 04:08:16;;;;;;;13.65;5.75;;;;;;;16.95;90.50;100423.88;10245362;28;20055;-69
2022/09/15 04:13:17;;;;;;;12.60;7.35;;;;;;;17.16;89.67;100407.53;10245393;28;20047;-70
2022/09/15 04:18:18;;;;;;;9.65;6.13;;;;;;;17.45;87.79;100397.34;10245894;28;20088;-70
2022/09/15 04:23:19;;;;;;;6.28;5.07;;;;;;;17.92;85.56;100401.50;10245749;28;20059;-70
2022/09/15 04:28:19;;;;;;;11.57;7.72;;;;;;;18.11;83.63;100334.41;10245283;28;20492;-71
2022/09/15 04:33:21;;;;;;;12.57;6.82;;;;;;;18.66;82.32;100359.59;10245038;28;20397;-72
2022/09/15 04:38:22;;;;;;;12.77;8.48;;;;;;;18.45;81.42;100333.91;10250307;28;20054;-70
2022/09/15 04:43:22;;;;;;;16.77;8.57;;;;;;;18.47;81.40;100350.66;10251472;28;20044;-71
2022/09/15 04:48:24;;;;;;;23.70;9.43;;;;;;;19.04;81.66;100434.03;10261671;28;20051;-69
2022/09/15 04:53:25;;;;;;;10.35;6.82;;;;;;;19.18;80.06;100434.75;10276367;28;20039;-71
2022/09/15 04:58:25;;;;;;;15.98;9.40;;;;;;;19.34;78.62;100409.09;10273753;28;20050;-72
2022/09/15 05:03:26;;;;;;;14.07;6.57;;;;;;;19.56;78.19;100409.44;10250314;29;20070;-71
2022/09/15 05:08:27;;;;;;;15.00;7.05;;;;;;;19.42;78.02;100363.00;10250224;28;20055;-71
2022/09/15 05:13:28;;;;;;;16.10;5.82;;;;;;;20.10;75.88;100401.53;10250624;28;20490;-71
2022/09/15 05:18:30;;;;;;;14.73;6.30;;;;;;;20.59;73.81;100411.19;10250046;28;20043;-72
2022/09/15 05:23:32;;;;;;;17.98;6.18;;;;;;;20.23;72.92;100332.03;10250761;28;20443;-73
2022/09/15 05:28:35;;;;;;;16.88;5.10;;;;;;;20.49;71.85;100378.50;10249634;28;20043;-72
2022/09/15 05:33:36;;;;;;;8.60;5.82;;;;;;;20.74;71.82;100402.66;10249616;28;20462;-74
2022/09/15 05:38:37;;;;;;;12.27;7.72;;;;;;;21.07;69.68;100396.66;10249398;28;20482;-73
2022/09/15 05:43:39;;;;;;;9.52;7.28;;;;;;;21.43;67.47;100409.09;10249890;28;20093;-74
2022/09/15 05:48:39;;;;;;;8.52;6.40;;;;;;;21.68;65.70;100350.38;10249328;28;20058;-71
2022/09/15 05:53:40;;;;;;;7.30;6.00;;;;;;;21.13;64.64;100274.16;10249356;28;20046;-71
2022/09/15 05:58:43;;;;;;;6.32;3.97;;;;;;;21.63;63.00;100400.59;10249679;28;20059;-71
2022/09/15 06:03:45;;;;;;;9.20;4.73;;;;;;;21.67;62.81;100394.72;10249285;28;20040;-71
2022/09/15 06:08:49;;;;;;;7.05;3.28;;;;;;;22.13;60.36;100407.22;10249303;28;20051;-72
2022/09/15 06:13:49;;;;;;;6.70;3.13;;;;;;;22.50;59.83;100377.84;10248951;28;20513;-71
2022/09/15 06:18:52;;;;;;;5.68;3.00;;;;;;;22.56;57.46;100338.97;10248046;28;20058;-72
2022/09/15 06:23:55;;;;;;;3.38;2.60;;;;;;;23.31;56.18;100393.69;10248612;28;20073;-73
2022/09/15 06:28:58;;;;;;;11.13;3.20;;;;;;;23.27;55.52;100375.47;10247915;28;20047;-73
2022/09/15 06:34:00;;;;;;;4.75;2.25;;;;;;;23.50;55.18;100390.66;10248151;28;20051;-72
2022/09/15 06:39:01;;;;;;;3.83;2.30;;;;;;;23.95;54.19;100405.88;10247405;28;20043;-73
2022/09/15 06:44:02;;;;;;;2.78;2.17;;;;;;;23.94;53.53;100385.25;10247431;28;20059;-72
2022/09/15 06:49:03;;;;;;;8.18;2.35;;;;;;;23.36;53.70;100292.63;10247157;28;20047;-72
2022/09/15 06:54:05;;;;;;;7.35;3.53;;;;;;;23.82;54.28;100372.63;10248040;28;20062;-72
2022/09/15 06:59:06;;;;;;;15.25;3.42;;;;;;;23.79;54.88;100372.34;10246107;28;20149;-73
2022/09/15 07:04:08;;;;;;;5.05;2.42;;;;;;;23.61;54.71;100376.97;10247346;28;20039;-72
2022/09/15 07:09:09;;;;;;;3.28;2.05;;;;;;;23.71;53.42;100338.34;10246719;28;20055;-72
2022/09/15 07:14:11;;;;;;;4.78;2.05;;;;;;;24.51;51.98;100347.50;10247171;28;20039;-73
2022/09/15 07:19:11;;;;;;;4.95;2.28;;;;;;;24.69;51.60;100348.19;10247269;28;20047;-73
2022/09/15 07:24:13;;;;;;;5.50;2.85;;;;;;;24.86;51.46;100342.56;10246844;28;20493;-72
2022/09/15 07:29:14;;;;;;;6.05;2.40;;;;;;;24.52;51.04;100277.72;10246103;28;20126;-72
2022/09/15 07:34:15;;;;;;;3.45;1.90;;;;;;;24.88;49.11;100321.38;10245906;28;20133;-73
2022/09/15 07:39:15;;;;;;;4.95;2.15;;;;;;;25.39;49.57;100324.38;10246436;28;20043;-72
2022/09/15 07:44:16;;;;;;;3.92;2.20;;;;;;;25.29;47.97;100297.97;10246281;28;20504;-72
2022/09/15 07:49:17;;;;;;;4.32;2.30;;;;;;;25.51;47.10;100317.59;10245422;28;20418;-73
2022/09/15 07:54:18;;;;;;;7.72;3.28;;;;;;;25.34;48.07;100270.78;10246062;28;20044;-76
2022/09/15 07:59:18;;;;;;;2.80;1.80;;;;;;;25.22;47.46;100316.44;10245364;28;20067;-73
2022/09/15 08:04:19;;;;;;;3.65;2.60;;;;;;;25.47;47.29;100297.47;10245762;28;20398;-73
2022/09/15 08:09:20;;;;;;;5.85;3.00;;;;;;;25.63;48.65;100279.28;10246156;28;20510;-74
2022/09/15 08:14:21;;;;;;;4.22;2.80;;;;;;;24.95;49.21;100265.72;10251542;28;20128;-73
2022/09/15 08:19:21;;;;;;;3.80;2.53;;;;;;;24.30;49.43;100226.25;10253294;28;20050;-73
2022/09/15 08:24:23;;;;;;;5.28;3.10;;;;;;;24.46;49.70;100273.34;10251076;29;20066;-72
2022/09/15 08:29:24;;;;;;;3.80;2.40;;;;;;;25.11;47.87;100273.94;10252264;28;20113;-73
2022/09/15 08:34:26;;;;;;;11.57;4.40;;;;;;;25.39;48.00;100280.84;10252573;28;20043;-73
2022/09/15 08:39:27;;;;;;;3.72;2.15;;;;;;;25.18;47.16;100259.03;10251253;28;20134;-73
2022/09/15 08:44:37;;;;;;;5.30;2.40;;;;;;;25.89;46.77;100263.03;10251539;28;20062;-73
2022/09/15 08:49:49;;;;;;;2.97;2.00;;;;;;;26.07;45.42;100270.63;10251517;28;20054;-73
2022/09/15 08:54:52;;;;;;;2.83;1.70;;;;;;;26.44;44.75;100261.31;10250815;28;20075;-73
2022/09/15 08:59:54;;;;;;;5.37;2.03;;;;;;;26.89;44.57;100259.59;10250876;28;20572;-72
2022/09/15 09:05:29;;;;;;;8.05;1.98;;;;;;;27.06;43.88;100218.38;10250592;28;20047;-73
2022/09/15 09:10:48;;;;;;;3.70;1.52;;;;;;;27.68;42.44;100254.28;10224643;28;20067;-73
2022/09/15 09:16:33;;;;;;;3.58;1.90;;;;;;;27.28;42.15;100169.72;10250775;28;20057;-73
2022/09/15 09:21:49;;;;;;;2.80;1.70;;;;;;;27.46;42.50;100194.69;10248159;28;20047;-73
2022/09/15 09:26:54;;;;;;;3.58;1.70;;;;;;;27.52;42.03;100239.94;10250557;28;20043;-73
2022/09/15 09:31:56;;;;;;;8.70;2.03;;;;;;;27.45;41.77;100245.72;10249938;28;20043;-73
2022/09/15 09:36:59;;;;;;;3.65;1.80;;;;;;;27.44;41.30;100238.63;10249575;28;20047;-72
2022/09/15 09:42:01;;;;;;;22.63;2.97;;;;;;;27.36;42.38;100241.94;10249864;28;20092;-71
2022/09/15 09:47:02;;;;;;;8.90;1.92;;;;;;;26.02;43.28;100109.22;10249839;28;20066;-71
2022/09/15 09:52:03;;;;;;;31.10;1.92;;;;;;;26.75;42.62;100217.69;10249592;28;20040;-71
2022/09/15 09:57:14;;;;;;;3.67;1.75;;;;;;;26.72;41.74;100178.19;10249669;28;20039;-72
2022/09/15 10:02:20;;;;;;;3.97;1.85;;;;;;;26.66;41.45;100225.63;10249564;28;20059;-73
2022/09/15 10:07:25;;;;;;;3.55;1.80;;;;;;;26.67;42.21;100212.81;10249134;28;20046;-75
2022/09/15 10:12:40;;;;;;;2.45;1.65;;;;;;;26.92;41.77;100207.25;10248430;28;20126;-73
2022/09/15 10:17:44;;;;;;;6.88;1.60;;;;;;;26.99;40.64;100220.59;10249374;28;20051;-73
2022/09/15 10:22:45;;;;;;;2.58;1.60;;;;;;;26.84;41.36;100205.94;10248646;28;20077;-74
2022/09/15 10:28:07;;;;;;;4.68;1.73;;;;;;;27.18;40.86;100194.31;10248355;28;20039;-72
2022/09/15 10:33:22;;;;;;;8.63;2.25;;;;;;;27.36;41.50;100197.50;10247721;28;20413;-73
2022/09/15 10:38:32;;;;;;;13.65;2.00;;;;;;;27.29;40.17;100160.44;10248280;28;20490;-73
2022/09/15 10:44:00;;;;;;;3.75;1.45;;;;;;;27.48;41.23;100179.66;10248877;28;20050;-73
2022/09/15 10:49:01;;;;;;;5.00;1.55;;;;;;;27.08;41.25;100113.38;10248011;28;20415;-72
2022/09/15 10:54:24;;;;;;;2.60;1.60;;;;;;;27.55;39.77;100168.41;10247623;28;20047;-72
2022/09/15 11:00:02;;;;;;;4.63;1.75;;;;;;;27.77;40.36;100155.13;10247119;28;20066;-73
2022/09/15 11:05:22;;;;;;;3.40;1.90;;;;;;;27.54;41.33;100162.16;10243877;29;20051;-71
2022/09/15 11:10:45;;;;;;;2.55;1.58;;;;;;;26.59;42.45;100091.59;10247304;28;20054;-71
2022/09/15 11:16:23;;;;;;;9.85;1.77;;;;;;;26.67;42.18;100120.19;10246520;28;20052;-72
2022/09/15 11:21:42;;;;;;;4.30;1.38;;;;;;;26.91;42.56;100159.28;10247198;28;20085;-72
2022/09/15 11:26:48;;;;;;;5.40;1.52;;;;;;;26.53;42.35;100147.19;10247144;28;20043;-73
2022/09/15 11:31:59;;;;;;;7.05;1.60;;;;;;;25.83;43.04;100095.41;10246443;28;20122;-71
2022/09/15 11:37:10;;;;;;;2.47;1.50;;;;;;;25.99;42.52;100139.72;10245574;29;20096;-73
2022/09/15 11:42:19;;;;;;;29.75;2.28;;;;;;;25.27;43.88;100020.91;10245810;28;20070;-71
2022/09/15 11:47:41;;;;;;;5.07;1.77;;;;;;;25.97;43.56;100123.69;10246143;28;20046;-72
2022/09/15 11:52:42;;;;;;;3.33;1.53;;;;;;;26.18;42.73;100121.72;10246066;28;20047;-74
2022/09/15 11:58:01;;;;;;;8.63;1.65;;;;;;;26.25;42.27;100113.25;10245850;28;20043;-74
2022/09/15 12:03:18;;;;;;;3.70;1.27;;;;;;;26.19;41.43;100120.63;10246359;28;20188;-72
2022/09/15 12:08:59;;;;;;;5.13;1.80;;;;;;;26.15;42.38;100111.38;10245232;28;20051;-72
2022/09/15 12:14:03;;;;;;;8.00;1.30;;;;;;;25.98;42.11;100110.88;10245422;28;20047;-73
2022/09/15 12:19:19;;;;;;;;;;;;;;;26.17;42.86;100120.06;10261090;28;20039;-70
2022/09/15 12:24:22;;;;;;;19.63;2.17;;;;;;;25.47;42.98;100052.72;10279400;28;19922;-71
2022/09/15 12:29:26;;;;;;;10.98;1.88;;;;;;;25.81;43.53;100108.41;10259679;28;20166;-72
2022/09/15 12:34:35;;;;;;;2.65;1.58;;;;;;;25.94;42.23;100107.91;10267366;28;20043;-71
2022/09/15 12:39:40;;;;;;;4.53;1.40;;;;;;;25.39;42.55;100025.25;10259755;28;20076;-71
2022/09/15 12:44:52;;;;;;;20.85;2.97;;;;;;;25.88;43.70;100073.63;10257641;28;20480;-71
2022/09/15 12:49:59;;;;;;;3.13;1.67;;;;;;;26.02;42.97;100110.03;10261932;28;20043;-71
2022/09/15 12:55:03;;;;;;;6.72;1.60;;;;;;;25.71;42.93;100085.59;10267588;28;20088;-70
2022/09/15 13:00:46;;;;;;;3.83;1.50;;;;;;;25.39;43.57;100044.28;10272865;28;20116;-70
2022/09/15 13:05:47;;;;;;;2.65;1.48;;;;;;;25.69;43.27;100116.88;10286300;28;20050;-70
2022/09/15 13:11:00;;;;;;;9.80;1.60;;;;;;;25.68;43.31;100115.25;10288912;28;20043;-71
2022/09/15 13:16:02;;;;;;;4.15;1.70;;;;;;;25.54;43.17;100097.84;10278739;28;20493;-69
2022/09/15 13:21:11;;;;;;;4.03;1.48;;;;;;;25.54;43.45;100117.69;10288219;28;20051;-70
2022/09/15 13:26:19;;;;;;;3.78;1.50;;;;;;;25.41;43.62;100115.53;10289626;28;20072;-69
2022/09/15 13:31:49;;;;;;;6.57;1.60;;;;;;;25.19;44.34;100110.38;10276386;28;20050;-69
2022/09/15 13:36:59;;;;;;;7.82;1.33;;;;;;;25.19;46.07;100130.22;10283098;28;20126;-73
2022/09/15 13:42:31;;;;;;;8.60;1.75;;;;;;;25.09;45.30;100123.91;10245629;28;20498;-71
2022/09/15 13:47:58;;;;;;;6.15;1.63;;;;;;;25.01;45.03;100128.78;10257735;28;20100;-70
2022/09/15 13:53:10;;;;;;;7.05;1.85;;;;;;;24.49;45.78;100050.97;10328650;28;20051;-72
2022/09/15 13:58:19;;;;;;;39.92;13.93;;;;;;;24.94;46.54;100120.06;10283382;28;20088;-72
2022/09/15 14:03:27;;;;;;;22.50;3.78;;;;;;;24.89;45.83;100114.63;10267655;28;20055;-73
2022/09/15 14:08:32;;;;;;;9.88;1.90;;;;;;;24.77;45.87;100092.34;10243182;28;20425;-71
2022/09/15 14:13:36;;;;;;;6.82;1.80;;;;;;;24.55;45.68;100068.09;10244965;28;20078;-70
2022/09/15 14:18:43;;;;;;;5.65;1.40;;;;;;;24.90;45.64;100120.88;10253116;28;21968;-71
2022/09/15 14:23:51;;;;;;;6.10;1.60;;;;;;;24.76;45.39;100120.56;10280065;28;20039;-71
2022/09/15 14:28:58;;;;;;;11.10;1.98;;;;;;;24.57;46.33;100123.78;10281981;28;20145;-71
2022/09/15 14:34:01;;;;;;;2.42;1.35;;;;;;;24.24;46.79;100110.56;10274848;28;20135;-71
2022/09/15 14:39:11;;;;;;;7.07;1.55;;;;;;;24.15;48.20;100126.53;10241723;28;20050;-71
2022/09/15 14:44:34;;;;;;;44.53;25.35;;;;;;;23.54;49.47;100072.66;10241580;28;20559;-70
2022/09/15 14:49:36;;;;;;;20.83;9.35;;;;;;;23.58;48.22;100106.34;10240589;28;20153;-71
2022/09/15 14:54:37;;;;;;;4.97;3.80;;;;;;;23.45;48.83;100131.16;10267569;28;20039;-70
2022/09/15 14:59:46;;;;;;;8.30;2.05;;;;;;;23.29;49.64;100134.81;10249721;28;20112;-70
2022/09/15 15:04:56;;;;;;;30.85;2.47;;;;;;;23.16;50.22;100136.06;10279502;28;20056;-71
2022/09/15 15:10:01;;;;;;;16.08;4.82;;;;;;;22.73;50.29;100106.06;10320754;28;20153;-70
2022/09/15 15:15:03;;;;;;;5.63;2.10;;;;;;;22.87;50.03;100147.09;10271047;28;20054;-70
2022/09/15 15:20:07;;;;;;;14.77;3.63;;;;;;;22.77;51.38;100150.53;10277586;28;20049;-72
2022/09/15 15:25:27;;;;;;;22.23;3.38;;;;;;;22.60;52.22;100141.66;10279997;28;20039;-72
2022/09/15 15:30:30;;;;;;;7.32;2.22;;;;;;;22.60;51.61;100168.72;10267253;28;20105;-72
2022/09/15 15:35:34;;;;;;;6.70;2.20;;;;;;;22.54;52.10;100164.31;10272003;28;20035;-68
2022/09/15 15:40:38;;;;;;;25.33;17.52;;;;;;;22.04;52.69;100100.28;10262834;28;20099;-70
2022/09/15 15:45:57;;;;;;;15.85;7.68;;;;;;;21.97;54.30;100103.19;10285031;28;20058;-72
2022/09/15 15:50:59;;;;;;;12.07;4.43;;;;;;;22.15;54.00;100150.78;10274347;28;20043;-71
2022/09/15 15:56:00;;;;;;;15.13;6.97;;;;;;;21.64;54.42;100087.84;10285765;28;20050;-71
2022/09/15 16:01:00;;;;;;;19.77;10.43;;;;;;;21.95;54.72;100148.59;10285680;28;20058;-71
2022/09/15 16:06:01;;;;;;;10.00;5.70;;;;;;;21.47;55.73;100087.00;10271158;28;20039;-71
2022/09/15 16:11:03;;;;;;;6.00;3.15;;;;;;;21.35;56.05;100084.38;10251035;28;20057;-71
2022/09/15 16:16:25;;;;;;;4.40;2.50;;;;;;;21.81;56.90;100161.66;10261712;28;20042;-70
2022/09/15 16:21:40;;;;;;;2.95;1.70;;;;;;;21.24;57.16;100088.78;10284829;28;20045;-71
2022/09/15 16:26:41;;;;;;;3.75;1.80;;;;;;;21.60;56.53;100156.97;10284819;28;20043;-73
2022/09/15 16:31:42;;;;;;;2.80;1.70;;;;;;;21.62;57.12;100160.22;10285371;28;20039;-71
2022/09/15 16:36:43;;;;;;;6.25;1.70;;;;;;;21.54;57.40;100153.38;10291766;28;20042;-70
2022/09/15 16:41:44;;;;;;;3.13;1.50;;;;;;;21.57;57.81;100162.88;10291070;28;20548;-70
2022/09/15 16:46:45;;;;;;;2.50;1.40;;;;;;;21.49;58.31;100155.16;10290531;28;20390;-71
2022/09/15 16:51:45;;;;;;;6.68;1.70;;;;;;;21.47;59.14;100163.50;10290979;28;20110;-70
2022/09/15 16:56:46;;;;;;;4.25;1.77;;;;;;;21.43;59.89;100157.78;10290117;28;20477;-70
2022/09/15 17:01:47;;;;;;;2.72;1.58;;;;;;;21.21;59.98;100124.41;10290813;28;20062;-70
2022/09/15 17:06:48;;;;;;;3.47;1.83;;;;;;;21.32;60.34;100150.50;10289815;28;20043;-71
2022/09/15 17:11:49;;;;;;;3.70;1.90;;;;;;;21.22;60.63;100144.94;10291703;28;20078;-71
2022/09/15 17:16:51;;;;;;;6.35;2.10;;;;;;;21.30;60.73;100149.97;10287374;28;20042;-70
2022/09/15 17:21:52;;;;;;;5.65;2.22;;;;;;;21.15;61.11;100144.28;10269171;28;20054;-70
2022/09/15 17:26:53;;;;;;;3.22;1.95;;;;;;;21.07;61.42;100125.75;10249261;28;20035;-71
2022/09/15 17:31:54;;;;;;;2.88;2.05;;;;;;;21.16;61.76;100141.31;10250015;28;20047;-70
2022/09/15 17:36:55;;;;;;;2.55;2.00;;;;;;;21.14;61.88;100146.13;10250078;28;20035;-71
2022/09/15 17:41:55;;;;;;;3.13;1.85;;;;;;;20.84;62.19;100121.28;10250084;28;20482;-70
2022/09/15 17:46:56;;;;;;;5.70;2.20;;;;;;;20.79;62.53;100105.81;10250493;28;20066;-70
2022/09/15 17:51:57;;;;;;;5.45;2.00;;;;;;;20.90;62.79;100123.81;10248912;28;20043;-70
2022/09/15 17:56:58;;;;;;;6.78;2.90;;;;;;;20.95;63.08;100129.34;10248954;28;20055;-71
2022/09/15 18:01:59;;;;;;;2.90;2.03;;;;;;;20.81;63.07;100109.06;10264560;28;20059;-69
2022/09/15 18:06:59;;;;;;;6.85;2.30;;;;;;;20.33;63.66;100031.22;10261541;28;20051;-72
2022/09/15 18:12:00;;;;;;;4.32;2.53;;;;;;;20.77;63.67;100102.53;10249496;29;20039;-71
2022/09/15 18:17:01;;;;;;;7.32;2.60;;;;;;;20.66;63.95;100077.22;10248531;28;20047;-71
2022/09/15 18:22:02;;;;;;;5.22;2.28;;;;;;;20.27;63.91;100024.88;10263086;28;20146;-71
2022/09/15 18:27:03;;;;;;;6.40;2.58;;;;;;;20.67;64.31;100099.63;10249082;28;20043;-71
2022/09/15 18:32:04;;;;;;;4.28;2.20;;;;;;;20.62;64.46;100094.16;10248182;28;20130;-72
2022/09/15 18:37:05;;;;;;;10.32;2.78;;;;;;;20.47;64.98;100068.47;10256102;28;20137;-72
2022/09/15 18:42:06;;;;;;;5.03;2.40;;;;;;;20.60;65.47;100109.75;10253176;28;20491;-71
2022/09/15 18:47:07;;;;;;;8.18;3.05;;;;;;;20.39;65.86;100082.31;10262632;28;20035;-71
2022/09/15 18:52:08;;;;;;;3.70;2.58;;;;;;;20.34;66.16;100087.63;10247749;28;20050;-71
2022/09/15 18:57:08;;;;;;;5.28;2.97;;;;;;;19.85;67.34;100019.72;10247238;28;20727;-71
2022/09/15 19:02:15;;;;;;;5.97;2.50;;;;;;;20.19;67.37;100081.88;10246643;28;20078;-71
2022/09/15 19:07:16;;;;;;;7.60;3.35;;;;;;;20.09;67.95;100082.50;10246854;28;20043;-70
2022/09/15 19:12:17;;;;;;;4.93;2.70;;;;;;;19.97;68.42;100069.03;10245946;29;20088;-69
2022/09/15 19:17:18;;;;;;;6.63;2.50;;;;;;;19.79;68.47;100061.09;10262438;28;20406;-70
2022/09/15 19:22:19;;;;;;;3.30;2.33;;;;;;;19.74;68.66;100067.19;10247554;28;20050;-69
2022/09/15 19:27:20;;;;;;;4.90;2.50;;;;;;;19.60;69.02;100039.63;10246739;28;20054;-70
2022/09/15 19:32:21;;;;;;;3.70;2.60;;;;;;;19.72;69.15;100071.19;10246984;28;20495;-70
2022/09/15 19:37:22;;;;;;;4.30;2.63;;;;;;;19.63;69.74;100051.81;10246051;28;20051;-70
2022/09/15 19:42:23;;;;;;;4.00;2.35;;;;;;;19.46;69.75;100029.31;10246966;28;20490;-70
2022/09/15 19:47:24;;;;;;;5.18;2.30;;;;;;;19.42;69.69;100023.59;10247307;28;20054;-70
2022/09/15 19:52:26;;;;;;;3.53;2.20;;;;;;;19.57;69.35;100041.97;10246050;28;20039;-70
2022/09/15 19:57:27;;;;;;;3.78;2.35;;;;;;;19.16;68.78;99973.69;10258779;28;20453;-70
2022/09/15 20:02:28;;;;;;;7.70;2.25;;;;;;;19.55;69.26;100034.13;10265983;28;20059;-70
2022/09/15 20:07:30;;;;;;;4.18;2.38;;;;;;;19.47;69.73;100021.00;10288371;28;20090;-70
2022/09/15 20:12:30;;;;;;;3.35;2.13;;;;;;;19.35;69.94;99999.47;10252248;28;20039;-70
2022/09/15 20:17:32;;;;;;;6.60;2.35;;;;;;;19.20;70.18;99974.03;10266749;28;20039;-70
2022/09/15 20:22:33;;;;;;;4.32;2.80;;;;;;;19.29;69.92;99991.47;10250767;29;20125;-70
2022/09/15 20:27:34;;;;;;;7.40;2.67;;;;;;;19.41;69.89;99999.56;10252806;28;20046;-70
2022/09/15 20:32:35;;;;;;;5.05;2.35;;;;;;;18.93;69.99;99920.63;10251460;28;20035;-70
2022/09/15 20:37:35;;;;;;;4.82;2.40;;;;;;;18.79;70.07;99905.78;10252198;28;20067;-70
2022/09/15 20:42:36;;;;;;;5.13;2.20;;;;;;;19.30;70.46;100009.28;10251851;28;20085;-71
2022/09/15 20:47:37;;;;;;;9.02;2.28;;;;;;;18.77;71.01;99921.34;10251170;28;20130;-69
2022/09/15 20:52:39;;;;;;;4.90;2.28;;;;;;;18.65;70.94;99914.03;10250809;28;20035;-70
2022/09/15 20:57:40;;;;;;;5.82;2.42;;;;;;;19.03;71.50;99990.88;10251217;28;20165;-70
2022/09/15 21:02:41;;;;;;;3.47;2.13;;;;;;;18.96;72.00;99997.41;10261946;28;20158;-70
2022/09/15 21:07:41;;;;;;;6.25;2.60;;;;;;;18.49;72.84;99949.69;10251269;28;20046;-70
2022/09/15 21:12:43;;;;;;;7.55;3.10;;;;;;;18.82;73.29;99999.50;10251588;28;20050;-70
2022/09/15 21:17:44;;;;;;;10.25;2.90;;;;;;;18.67;73.33;99964.94;10249981;28;20391;-70
2022/09/15 21:22:45;;;;;;;5.68;2.90;;;;;;;18.24;73.84;99907.59;10250710;28;20070;-71
2022/09/15 21:27:46;;;;;;;4.70;2.80;;;;;;;18.05;74.53;99889.91;10251088;28;20039;-71
2022/09/15 21:32:47;;;;;;;5.03;2.90;;;;;;;18.38;74.86;99950.47;10250413;28;20105;-70
2022/09/15 21:37:48;;;;;;;8.52;3.05;;;;;;;18.52;74.70;99978.81;10250164;28;20564;-70
2022/09/15 21:42:49;;;;;;;7.05;3.30;;;;;;;18.50;75.13;99972.00;10249855;28;20055;-70
2022/09/15 21:47:49;;;;;;;5.38;3.10;;;;;;;18.22;75.73;99938.47;10249126;28;20035;-70
2022/09/15 21:52:50;;;;;;;6.22;2.92;;;;;;;17.95;76.03;99901.22;10249805;28;20039;-70
2022/09/15 21:57:51;;;;;;;8.80;3.10;;;;;;;18.23;76.52;99967.81;10249464;28;20043;-70
2022/09/15 22:02:52;;;;;;;5.75;2.92;;;;;;;18.25;76.80;99991.81;10249644;28;20071;-70
2022/09/15 22:07:53;;;;;;;4.00;3.05;;;;;;;18.18;77.68;99996.41;10248728;28;20120;-70
2022/09/15 22:12:54;;;;;;;6.30;3.30;;;;;;;18.08;78.21;99990.78;10248748;28;20070;-70
2022/09/15 22:17:54;;;;;;;8.07;3.80;;;;;;;17.74;79.24;99940.09;10248332;28;20047;-70
2022/09/15 22:22:55;;;;;;;6.10;3.22;;;;;;;17.95;79.22;99975.63;10248110;28;20043;-70
2022/09/15 22:27:56;;;;;;;12.52;7.93;;;;;;;18.01;79.38;99975.53;10247882;28;20044;-70
2022/09/15 22:32:57;;;;;;;5.97;4.20;;;;;;;17.84;79.78;99946.81;10247464;28;20039;-70
2022/09/15 22:37:57;;;;;;;5.90;3.80;;;;;;;17.43;79.97;99865.03;10248496;28;20039;-70
2022/09/15 22:42:58;;;;;;;7.88;4.80;;;;;;;17.90;80.23;99924.44;10248109;28;20043;-70
2022/09/15 22:47:59;;;;;;;5.55;3.95;;;;;;;18.07;79.38;99949.63;10247431;28;20051;-70
2022/09/15 22:53:00;;;;;;;7.15;3.83;;;;;;;18.22;78.98;99963.50;10247696;28;20036;-70
2022/09/15 22:58:01;;;;;;;8.40;5.43;;;;;;;18.16;79.14;99929.47;10262896;28;20043;-70
2022/09/15 23:03:02;;;;;;;9.52;6.13;;;;;;;18.14;79.66;99926.16;10247690;28;20063;-70
2022/09/15 23:08:03;;;;;;;9.38;5.85;;;;;;;18.21;80.43;99940.31;10247271;28;20517;-70
2022/09/15 23:13:03;;;;;;;33.00;5.90;;;;;;;17.65;81.59;99871.59;10246725;28;20126;-70
2022/09/15 23:18:04;;;;;;;15.75;5.00;;;;;;;18.19;81.96;99963.13;10247363;28;20069;-70
2022/09/15 23:23:05;;;;;;;10.90;4.57;;;;;;;18.23;82.47;99962.44;10246193;28;20414;-70